sensor_id;sensor_type;location;lat;lon;timestamp;temperature;humidity
46488;DHT22;32202;48.780;9.204;2022-07-11T00:00:07;16.50;78.90
46488;DHT22;32202;48.780;9.204;2022-07-11T00:02:34;16.50;78.80
46488;DHT22;32202;48.780;9.204;2022-07-11T00:04:59;16.50;78.80
46488;DHT22;32202;48.780;9.204;2022-07-11T00:07:25;16.60;79.00
46488;DHT22;32202;48.780;9.204;2022-07-11T00:09:50;16.50;78.80
46488;DHT22;32202;48.780;9.204;2022-07-11T00:12:16;16.60;79.10
46488;DHT22;32202;48.780;9.204;2022-07-11T00:14:43;16.60;78.90
46488;DHT22;32202;48.780;9.204;2022-07-11T00:17:09;16.60;78.80
46488;DHT22;32202;48.780;9.204;2022-07-11T00:19:36;16.70;78.70
46488;DHT22;32202;48.780;9.204;2022-07-11T00:22:02;16.70;78.80
46488;DHT22;32202;48.780;9.204;2022-07-11T00:24:27;16.70;78.90
46488;DHT22;32202;48.780;9.204;2022-07-11T00:26:53;16.60;79.10
46488;DHT22;32202;48.780;9.204;2022-07-11T00:29:21;16.60;79.50
46488;DHT22;32202;48.780;9.204;2022-07-11T00:31:46;16.50;80.00
46488;DHT22;32202;48.780;9.204;2022-07-11T00:34:12;16.50;80.40
46488;DHT22;32202;48.780;9.204;2022-07-11T00:36:38;16.50;81.00
46488;DHT22;32202;48.780;9.204;2022-07-11T00:39:03;16.40;81.50
46488;DHT22;32202;48.780;9.204;2022-07-11T00:41:29;16.30;81.80
46488;DHT22;32202;48.780;9.204;2022-07-11T00:43:56;16.30;82.10
46488;DHT22;32202;48.780;9.204;2022-07-11T00:46:24;16.30;82.70
46488;DHT22;32202;48.780;9.204;2022-07-11T00:48:50;16.20;82.80
46488;DHT22;32202;48.780;9.204;2022-07-11T00:51:17;16.20;83.10
46488;DHT22;32202;48.780;9.204;2022-07-11T00:53:43;16.20;83.40
46488;DHT22;32202;48.780;9.204;2022-07-11T00:56:09;16.20;83.90
46488;DHT22;32202;48.780;9.204;2022-07-11T00:58:35;16.10;84.20
46488;DHT22;32202;48.780;9.204;2022-07-11T01:01:02;16.10;84.70
46488;DHT22;32202;48.780;9.204;2022-07-11T01:03:28;16.10;85.10
46488;DHT22;32202;48.780;9.204;2022-07-11T01:05:53;16.00;85.40
46488;DHT22;32202;48.780;9.204;2022-07-11T01:08:19;16.00;86.30
46488;DHT22;32202;48.780;9.204;2022-07-11T01:10:45;16.00;86.40
46488;DHT22;32202;48.780;9.204;2022-07-11T01:13:11;16.00;86.60
46488;DHT22;32202;48.780;9.204;2022-07-11T01:15:37;16.00;86.80
46488;DHT22;32202;48.780;9.204;2022-07-11T01:18:03;16.10;87.00
46488;DHT22;32202;48.780;9.204;2022-07-11T01:20:29;16.10;86.90
46488;DHT22;32202;48.780;9.204;2022-07-11T01:23:03;16.10;86.80
46488;DHT22;32202;48.780;9.204;2022-07-11T01:25:29;16.20;87.00
46488;DHT22;32202;48.780;9.204;2022-07-11T01:30:24;16.20;87.10
46488;DHT22;32202;48.780;9.204;2022-07-11T01:32:52;16.20;87.00
46488;DHT22;32202;48.780;9.204;2022-07-11T01:35:18;16.20;87.10
46488;DHT22;32202;48.780;9.204;2022-07-11T01:37:44;16.20;87.10
46488;DHT22;32202;48.780;9.204;2022-07-11T01:40:10;16.20;87.40
46488;DHT22;32202;48.780;9.204;2022-07-11T01:42:36;16.20;87.60
46488;DHT22;32202;48.780;9.204;2022-07-11T01:45:02;16.20;87.70
46488;DHT22;32202;48.780;9.204;2022-07-11T01:47:28;16.20;87.70
46488;DHT22;32202;48.780;9.204;2022-07-11T01:49:54;16.20;87.80
46488;DHT22;32202;48.780;9.204;2022-07-11T01:52:20;16.30;87.90
46488;DHT22;32202;48.780;9.204;2022-07-11T01:54:46;16.30;87.80
46488;DHT22;32202;48.780;9.204;2022-07-11T01:57:12;16.30;87.80
46488;DHT22;32202;48.780;9.204;2022-07-11T01:59:37;16.40;87.70
46488;DHT22;32202;48.780;9.204;2022-07-11T02:02:03;16.40;87.60
46488;DHT22;32202;48.780;9.204;2022-07-11T02:04:28;16.40;87.60
46488;DHT22;32202;48.780;9.204;2022-07-11T02:06:54;16.50;87.60
46488;DHT22;32202;48.780;9.204;2022-07-11T02:09:20;16.50;87.60
46488;DHT22;32202;48.780;9.204;2022-07-11T02:11:47;16.50;87.50
46488;DHT22;32202;48.780;9.204;2022-07-11T02:14:12;16.50;87.50
46488;DHT22;32202;48.780;9.204;2022-07-11T02:16:38;16.50;87.50
46488;DHT22;32202;48.780;9.204;2022-07-11T02:19:04;16.50;86.70
46488;DHT22;32202;48.780;9.204;2022-07-11T02:21:31;16.50;86.40
46488;DHT22;32202;48.780;9.204;2022-07-11T02:23:57;16.50;86.50
46488;DHT22;32202;48.780;9.204;2022-07-11T02:26:22;16.40;86.50
46488;DHT22;32202;48.780;9.204;2022-07-11T02:28:48;16.50;86.70
46488;DHT22;32202;48.780;9.204;2022-07-11T02:31:14;16.50;86.60
46488;DHT22;32202;48.780;9.204;2022-07-11T02:33:39;16.50;86.60
46488;DHT22;32202;48.780;9.204;2022-07-11T02:36:05;16.50;86.70
46488;DHT22;32202;48.780;9.204;2022-07-11T02:38:32;16.50;86.70
46488;DHT22;32202;48.780;9.204;2022-07-11T02:40:58;16.50;86.80
46488;DHT22;32202;48.780;9.204;2022-07-11T02:43:24;16.50;86.80
46488;DHT22;32202;48.780;9.204;2022-07-11T02:45:50;16.50;86.80
46488;DHT22;32202;48.780;9.204;2022-07-11T02:48:15;16.50;86.80
46488;DHT22;32202;48.780;9.204;2022-07-11T02:50:41;16.60;86.90
46488;DHT22;32202;48.780;9.204;2022-07-11T02:53:07;16.60;86.80
46488;DHT22;32202;48.780;9.204;2022-07-11T02:55:32;16.60;86.60
46488;DHT22;32202;48.780;9.204;2022-07-11T02:57:58;16.50;86.60
46488;DHT22;32202;48.780;9.204;2022-07-11T03:00:23;16.60;86.60
46488;DHT22;32202;48.780;9.204;2022-07-11T03:02:49;16.60;86.50
46488;DHT22;32202;48.780;9.204;2022-07-11T03:05:15;16.60;86.50
46488;DHT22;32202;48.780;9.204;2022-07-11T03:07:41;16.60;86.30
46488;DHT22;32202;48.780;9.204;2022-07-11T03:10:07;16.60;86.60
46488;DHT22;32202;48.780;9.204;2022-07-11T03:12:32;16.60;87.00
46488;DHT22;32202;48.780;9.204;2022-07-11T03:14:58;16.60;87.40
46488;DHT22;32202;48.780;9.204;2022-07-11T03:17:24;16.60;87.60
46488;DHT22;32202;48.780;9.204;2022-07-11T03:19:50;16.60;87.80
46488;DHT22;32202;48.780;9.204;2022-07-11T03:22:15;16.60;87.70
46488;DHT22;32202;48.780;9.204;2022-07-11T03:24:42;16.60;87.30
46488;DHT22;32202;48.780;9.204;2022-07-11T03:27:08;16.70;86.90
46488;DHT22;32202;48.780;9.204;2022-07-11T03:29:34;16.60;86.70
46488;DHT22;32202;48.780;9.204;2022-07-11T03:32:00;16.60;87.10
46488;DHT22;32202;48.780;9.204;2022-07-11T03:34:26;16.60;87.70
46488;DHT22;32202;48.780;9.204;2022-07-11T03:36:52;16.70;87.70
46488;DHT22;32202;48.780;9.204;2022-07-11T03:39:19;16.70;87.80
46488;DHT22;32202;48.780;9.204;2022-07-11T03:41:46;16.70;87.90
46488;DHT22;32202;48.780;9.204;2022-07-11T03:44:12;16.70;88.30
46488;DHT22;32202;48.780;9.204;2022-07-11T03:46:38;16.80;88.40
46488;DHT22;32202;48.780;9.204;2022-07-11T03:49:04;16.70;88.60
46488;DHT22;32202;48.780;9.204;2022-07-11T03:51:30;16.80;88.70
46488;DHT22;32202;48.780;9.204;2022-07-11T03:53:56;16.80;88.90
46488;DHT22;32202;48.780;9.204;2022-07-11T03:56:21;16.80;89.00
46488;DHT22;32202;48.780;9.204;2022-07-11T03:58:51;16.70;89.10
46488;DHT22;32202;48.780;9.204;2022-07-11T04:01:17;16.80;89.20
46488;DHT22;32202;48.780;9.204;2022-07-11T04:03:42;16.80;89.10
46488;DHT22;32202;48.780;9.204;2022-07-11T04:06:08;16.90;89.00
46488;DHT22;32202;48.780;9.204;2022-07-11T04:08:33;16.90;88.50
46488;DHT22;32202;48.780;9.204;2022-07-11T04:10:59;16.90;87.70
46488;DHT22;32202;48.780;9.204;2022-07-11T04:13:25;16.90;87.30
46488;DHT22;32202;48.780;9.204;2022-07-11T04:15:51;17.00;87.00
46488;DHT22;32202;48.780;9.204;2022-07-11T04:18:16;17.00;86.80
46488;DHT22;32202;48.780;9.204;2022-07-11T04:20:42;17.10;86.70
46488;DHT22;32202;48.780;9.204;2022-07-11T04:23:08;17.10;86.60
46488;DHT22;32202;48.780;9.204;2022-07-11T04:25:34;17.10;86.40
46488;DHT22;32202;48.780;9.204;2022-07-11T04:28:00;17.10;86.10
46488;DHT22;32202;48.780;9.204;2022-07-11T04:30:26;17.20;86.00
46488;DHT22;32202;48.780;9.204;2022-07-11T04:32:52;17.20;85.80
46488;DHT22;32202;48.780;9.204;2022-07-11T04:35:18;17.30;85.80
46488;DHT22;32202;48.780;9.204;2022-07-11T04:37:43;17.30;85.50
46488;DHT22;32202;48.780;9.204;2022-07-11T04:40:10;17.30;85.50
46488;DHT22;32202;48.780;9.204;2022-07-11T04:42:36;17.30;85.30
46488;DHT22;32202;48.780;9.204;2022-07-11T04:45:02;17.40;85.30
46488;DHT22;32202;48.780;9.204;2022-07-11T04:47:28;17.40;85.20
46488;DHT22;32202;48.780;9.204;2022-07-11T04:49:54;17.50;85.20
46488;DHT22;32202;48.780;9.204;2022-07-11T04:52:19;17.50;85.10
46488;DHT22;32202;48.780;9.204;2022-07-11T04:54:45;17.60;85.20
46488;DHT22;32202;48.780;9.204;2022-07-11T04:57:10;17.70;84.80
46488;DHT22;32202;48.780;9.204;2022-07-11T04:59:36;17.70;84.50
46488;DHT22;32202;48.780;9.204;2022-07-11T05:02:02;17.80;84.70
46488;DHT22;32202;48.780;9.204;2022-07-11T05:04:30;17.90;83.60
46488;DHT22;32202;48.780;9.204;2022-07-11T05:06:55;18.00;83.40
46488;DHT22;32202;48.780;9.204;2022-07-11T05:09:21;18.10;83.10
46488;DHT22;32202;48.780;9.204;2022-07-11T05:11:47;18.10;82.60
46488;DHT22;32202;48.780;9.204;2022-07-11T05:14:12;18.10;83.40
46488;DHT22;32202;48.780;9.204;2022-07-11T05:16:38;17.90;84.30
46488;DHT22;32202;48.780;9.204;2022-07-11T05:19:26;17.90;85.30
46488;DHT22;32202;48.780;9.204;2022-07-11T05:21:52;18.00;84.80
46488;DHT22;32202;48.780;9.204;2022-07-11T05:24:17;18.10;84.40
46488;DHT22;32202;48.780;9.204;2022-07-11T05:26:44;18.30;84.10
46488;DHT22;32202;48.780;9.204;2022-07-11T05:29:10;18.40;83.50
46488;DHT22;32202;48.780;9.204;2022-07-11T05:31:36;18.60;82.80
46488;DHT22;32202;48.780;9.204;2022-07-11T05:34:01;18.70;82.10
46488;DHT22;32202;48.780;9.204;2022-07-11T05:36:27;18.80;81.40
46488;DHT22;32202;48.780;9.204;2022-07-11T05:38:52;18.90;81.00
46488;DHT22;32202;48.780;9.204;2022-07-11T05:41:18;19.10;80.50
46488;DHT22;32202;48.780;9.204;2022-07-11T05:43:43;19.10;79.70
46488;DHT22;32202;48.780;9.204;2022-07-11T05:46:09;19.30;79.10
46488;DHT22;32202;48.780;9.204;2022-07-11T05:48:35;19.40;78.60
46488;DHT22;32202;48.780;9.204;2022-07-11T05:51:00;19.60;77.50
46488;DHT22;32202;48.780;9.204;2022-07-11T05:53:26;19.60;76.90
46488;DHT22;32202;48.780;9.204;2022-07-11T05:55:51;19.80;76.30
46488;DHT22;32202;48.780;9.204;2022-07-11T05:58:17;20.00;75.30
46488;DHT22;32202;48.780;9.204;2022-07-11T06:00:43;20.00;74.60
46488;DHT22;32202;48.780;9.204;2022-07-11T06:03:08;20.10;74.40
46488;DHT22;32202;48.780;9.204;2022-07-11T06:05:34;20.20;73.10
46488;DHT22;32202;48.780;9.204;2022-07-11T06:07:59;20.40;72.80
46488;DHT22;32202;48.780;9.204;2022-07-11T06:10:43;20.40;72.30
46488;DHT22;32202;48.780;9.204;2022-07-11T06:13:09;20.60;71.60
46488;DHT22;32202;48.780;9.204;2022-07-11T06:15:35;20.60;71.10
46488;DHT22;32202;48.780;9.204;2022-07-11T06:18:01;20.80;70.80
46488;DHT22;32202;48.780;9.204;2022-07-11T06:20:27;20.80;70.30
46488;DHT22;32202;48.780;9.204;2022-07-11T06:22:53;20.80;70.00
46488;DHT22;32202;48.780;9.204;2022-07-11T06:25:19;20.80;69.60
46488;DHT22;32202;48.780;9.204;2022-07-11T06:27:44;20.80;70.40
46488;DHT22;32202;48.780;9.204;2022-07-11T06:30:10;20.80;69.90
46488;DHT22;32202;48.780;9.204;2022-07-11T06:32:36;20.90;69.70
46488;DHT22;32202;48.780;9.204;2022-07-11T06:35:01;20.90;69.70
46488;DHT22;32202;48.780;9.204;2022-07-11T06:37:34;21.00;69.30
46488;DHT22;32202;48.780;9.204;2022-07-11T06:39:59;21.10;69.10
46488;DHT22;32202;48.780;9.204;2022-07-11T06:42:25;21.10;68.60
46488;DHT22;32202;48.780;9.204;2022-07-11T06:44:51;21.10;68.70
46488;DHT22;32202;48.780;9.204;2022-07-11T06:47:17;21.30;68.20
46488;DHT22;32202;48.780;9.204;2022-07-11T06:49:43;21.00;68.70
46488;DHT22;32202;48.780;9.204;2022-07-11T06:52:09;20.90;68.70
46488;DHT22;32202;48.780;9.204;2022-07-11T06:54:34;20.70;69.80
46488;DHT22;32202;48.780;9.204;2022-07-11T06:57:00;20.80;69.70
46488;DHT22;32202;48.780;9.204;2022-07-11T06:59:26;20.90;69.10
46488;DHT22;32202;48.780;9.204;2022-07-11T07:01:51;20.80;69.60
46488;DHT22;32202;48.780;9.204;2022-07-11T07:04:17;21.20;68.90
46488;DHT22;32202;48.780;9.204;2022-07-11T07:06:43;21.60;67.70
46488;DHT22;32202;48.780;9.204;2022-07-11T07:09:09;22.00;66.40
46488;DHT22;32202;48.780;9.204;2022-07-11T07:11:34;22.50;64.70
46488;DHT22;32202;48.780;9.204;2022-07-11T07:14:00;22.90;63.10
46488;DHT22;32202;48.780;9.204;2022-07-11T07:16:26;23.30;62.60
46488;DHT22;32202;48.780;9.204;2022-07-11T07:18:51;23.70;60.70
46488;DHT22;32202;48.780;9.204;2022-07-11T07:21:17;24.00;59.70
46488;DHT22;32202;48.780;9.204;2022-07-11T07:23:43;24.10;58.80
46488;DHT22;32202;48.780;9.204;2022-07-11T07:26:08;24.10;58.40
46488;DHT22;32202;48.780;9.204;2022-07-11T07:28:34;24.50;57.70
46488;DHT22;32202;48.780;9.204;2022-07-11T07:31:00;24.90;56.70
46488;DHT22;32202;48.780;9.204;2022-07-11T07:33:25;25.40;55.40
46488;DHT22;32202;48.780;9.204;2022-07-11T07:35:51;25.80;54.80
46488;DHT22;32202;48.780;9.204;2022-07-11T07:38:16;26.60;53.10
46488;DHT22;32202;48.780;9.204;2022-07-11T07:40:42;27.40;51.10
46488;DHT22;32202;48.780;9.204;2022-07-11T07:43:08;27.80;49.90
46488;DHT22;32202;48.780;9.204;2022-07-11T07:45:34;28.30;49.10
46488;DHT22;32202;48.780;9.204;2022-07-11T07:47:59;28.90;47.90
46488;DHT22;32202;48.780;9.204;2022-07-11T07:50:25;30.00;46.30
46488;DHT22;32202;48.780;9.204;2022-07-11T07:52:51;31.70;44.40
46488;DHT22;32202;48.780;9.204;2022-07-11T07:55:16;34.00;41.40
46488;DHT22;32202;48.780;9.204;2022-07-11T07:57:43;34.80;39.80
46488;DHT22;32202;48.780;9.204;2022-07-11T08:00:09;34.50;39.70
46488;DHT22;32202;48.780;9.204;2022-07-11T08:02:53;34.40;39.00
46488;DHT22;32202;48.780;9.204;2022-07-11T08:05:19;34.10;38.90
46488;DHT22;32202;48.780;9.204;2022-07-11T08:07:45;33.20;39.90
46488;DHT22;32202;48.780;9.204;2022-07-11T08:10:11;32.40;40.20
46488;DHT22;32202;48.780;9.204;2022-07-11T08:12:37;32.60;40.50
46488;DHT22;32202;48.780;9.204;2022-07-11T08:15:05;32.90;39.90
46488;DHT22;32202;48.780;9.204;2022-07-11T08:17:31;33.60;39.20
46488;DHT22;32202;48.780;9.204;2022-07-11T08:19:57;34.00;38.40
46488;DHT22;32202;48.780;9.204;2022-07-11T08:22:22;34.20;38.30
46488;DHT22;32202;48.780;9.204;2022-07-11T08:24:48;35.30;37.40
46488;DHT22;32202;48.780;9.204;2022-07-11T08:27:14;36.40;36.70
46488;DHT22;32202;48.780;9.204;2022-07-11T08:29:39;38.20;35.20
46488;DHT22;32202;48.780;9.204;2022-07-11T08:32:06;39.00;34.40
46488;DHT22;32202;48.780;9.204;2022-07-11T08:34:31;39.50;33.90
46488;DHT22;32202;48.780;9.204;2022-07-11T08:36:58;40.50;33.30
46488;DHT22;32202;48.780;9.204;2022-07-11T08:39:23;41.40;32.40
46488;DHT22;32202;48.780;9.204;2022-07-11T08:41:49;41.70;31.90
46488;DHT22;32202;48.780;9.204;2022-07-11T08:44:15;42.20;31.70
46488;DHT22;32202;48.780;9.204;2022-07-11T08:46:41;42.80;31.00
46488;DHT22;32202;48.780;9.204;2022-07-11T08:49:07;43.20;30.70
46488;DHT22;32202;48.780;9.204;2022-07-11T08:51:36;43.00;30.30
46488;DHT22;32202;48.780;9.204;2022-07-11T08:54:03;41.90;31.10
46488;DHT22;32202;48.780;9.204;2022-07-11T08:56:29;41.90;31.00
46488;DHT22;32202;48.780;9.204;2022-07-11T08:58:58;42.70;30.20
46488;DHT22;32202;48.780;9.204;2022-07-11T09:01:31;42.90;30.20
46488;DHT22;32202;48.780;9.204;2022-07-11T09:03:58;43.90;29.90
46488;DHT22;32202;48.780;9.204;2022-07-11T09:06:24;44.50;29.60
46488;DHT22;32202;48.780;9.204;2022-07-11T09:08:50;45.30;29.50
46488;DHT22;32202;48.780;9.204;2022-07-11T09:11:16;45.80;29.30
46488;DHT22;32202;48.780;9.204;2022-07-11T09:13:42;44.70;29.10
46488;DHT22;32202;48.780;9.204;2022-07-11T09:16:09;44.30;29.50
46488;DHT22;32202;48.780;9.204;2022-07-11T09:18:39;43.90;29.70
46488;DHT22;32202;48.780;9.204;2022-07-11T09:21:10;44.50;29.50
46488;DHT22;32202;48.780;9.204;2022-07-11T09:24:00;44.40;29.70
46488;DHT22;32202;48.780;9.204;2022-07-11T09:26:46;45.30;29.20
46488;DHT22;32202;48.780;9.204;2022-07-11T09:29:19;46.20;29.10
46488;DHT22;32202;48.780;9.204;2022-07-11T09:31:46;47.20;28.60
46488;DHT22;32202;48.780;9.204;2022-07-11T09:34:17;47.90;28.60
46488;DHT22;32202;48.780;9.204;2022-07-11T09:36:46;47.90;28.30
46488;DHT22;32202;48.780;9.204;2022-07-11T09:39:17;48.10;28.40
46488;DHT22;32202;48.780;9.204;2022-07-11T09:41:43;47.20;28.70
46488;DHT22;32202;48.780;9.204;2022-07-11T09:44:30;46.90;28.20
46488;DHT22;32202;48.780;9.204;2022-07-11T09:46:59;45.10;28.90
46488;DHT22;32202;48.780;9.204;2022-07-11T09:49:33;43.90;29.30
46488;DHT22;32202;48.780;9.204;2022-07-11T09:54:32;43.10;29.60
46488;DHT22;32202;48.780;9.204;2022-07-11T09:56:58;44.20;29.40
46488;DHT22;32202;48.780;9.204;2022-07-11T09:59:24;44.20;28.80
46488;DHT22;32202;48.780;9.204;2022-07-11T10:01:49;43.90;29.10
46488;DHT22;32202;48.780;9.204;2022-07-11T10:04:15;42.70;29.30
46488;DHT22;32202;48.780;9.204;2022-07-11T10:06:40;41.30;29.90
46488;DHT22;32202;48.780;9.204;2022-07-11T10:09:06;40.10;30.20
46488;DHT22;32202;48.780;9.204;2022-07-11T10:11:32;38.90;31.20
46488;DHT22;32202;48.780;9.204;2022-07-11T10:14:03;37.70;32.30
46488;DHT22;32202;48.780;9.204;2022-07-11T10:16:50;37.20;32.80
46488;DHT22;32202;48.780;9.204;2022-07-11T10:19:26;36.90;33.10
46488;DHT22;32202;48.780;9.204;2022-07-11T10:30:01;35.00;35.30
46488;DHT22;32202;48.780;9.204;2022-07-11T10:32:27;36.40;34.40
46488;DHT22;32202;48.780;9.204;2022-07-11T10:35:11;38.40;33.00
46488;DHT22;32202;48.780;9.204;2022-07-11T10:37:53;39.50;31.90
46488;DHT22;32202;48.780;9.204;2022-07-11T10:40:42;40.70;31.00
46488;DHT22;32202;48.780;9.204;2022-07-11T10:43:16;39.80;31.40
46488;DHT22;32202;48.780;9.204;2022-07-11T10:45:58;38.90;31.90
46488;DHT22;32202;48.780;9.204;2022-07-11T10:48:25;37.60;32.90
46488;DHT22;32202;48.780;9.204;2022-07-11T10:51:11;36.60;33.40
46488;DHT22;32202;48.780;9.204;2022-07-11T10:53:45;37.40;33.40
46488;DHT22;32202;48.780;9.204;2022-07-11T10:58:44;37.30;33.30
46488;DHT22;32202;48.780;9.204;2022-07-11T11:01:15;36.70;33.50
46488;DHT22;32202;48.780;9.204;2022-07-11T11:03:42;36.10;34.10
46488;DHT22;32202;48.780;9.204;2022-07-11T11:06:09;35.90;34.40
46488;DHT22;32202;48.780;9.204;2022-07-11T11:11:08;34.70;35.30
46488;DHT22;32202;48.780;9.204;2022-07-11T11:13:35;34.50;35.80
46488;DHT22;32202;48.780;9.204;2022-07-11T11:16:02;34.20;35.70
46488;DHT22;32202;48.780;9.204;2022-07-11T11:18:32;33.60;36.00
46488;DHT22;32202;48.780;9.204;2022-07-11T11:23:31;32.90;36.90
46488;DHT22;32202;48.780;9.204;2022-07-11T11:26:10;32.70;37.20
46488;DHT22;32202;48.780;9.204;2022-07-11T11:28:37;32.60;37.20
46488;DHT22;32202;48.780;9.204;2022-07-11T11:31:05;32.60;37.40
46488;DHT22;32202;48.780;9.204;2022-07-11T11:33:33;32.80;37.60
46488;DHT22;32202;48.780;9.204;2022-07-11T11:36:08;33.20;37.00
46488;DHT22;32202;48.780;9.204;2022-07-11T11:38:41;34.10;36.40
46488;DHT22;32202;48.780;9.204;2022-07-11T11:41:07;36.00;34.80
46488;DHT22;32202;48.780;9.204;2022-07-11T11:43:34;38.30;33.20
46488;DHT22;32202;48.780;9.204;2022-07-11T11:46:00;39.90;31.90
46488;DHT22;32202;48.780;9.204;2022-07-11T11:48:31;42.20;30.70
46488;DHT22;32202;48.780;9.204;2022-07-11T11:51:16;43.30;30.00
46488;DHT22;32202;48.780;9.204;2022-07-11T11:53:54;44.20;29.80
46488;DHT22;32202;48.780;9.204;2022-07-11T11:56:25;45.20;29.40
46488;DHT22;32202;48.780;9.204;2022-07-11T11:59:01;45.50;29.30
46488;DHT22;32202;48.780;9.204;2022-07-11T12:01:28;43.90;29.50
46488;DHT22;32202;48.780;9.204;2022-07-11T12:04:00;41.70;30.30
46488;DHT22;32202;48.780;9.204;2022-07-11T12:06:34;41.10;30.70
46488;DHT22;32202;48.780;9.204;2022-07-11T12:09:08;40.40;31.20
46488;DHT22;32202;48.780;9.204;2022-07-11T12:11:44;39.00;32.10
46488;DHT22;32202;48.780;9.204;2022-07-11T12:14:12;38.60;32.40
46488;DHT22;32202;48.780;9.204;2022-07-11T12:16:43;38.80;32.00
46488;DHT22;32202;48.780;9.204;2022-07-11T12:19:11;37.30;33.00
46488;DHT22;32202;48.780;9.204;2022-07-11T12:21:39;36.50;33.90
46488;DHT22;32202;48.780;9.204;2022-07-11T12:24:07;35.70;35.30
46488;DHT22;32202;48.780;9.204;2022-07-11T12:26:35;34.70;35.50
46488;DHT22;32202;48.780;9.204;2022-07-11T12:29:14;34.10;36.90
46488;DHT22;32202;48.780;9.204;2022-07-11T12:34:10;33.20;37.70
46488;DHT22;32202;48.780;9.204;2022-07-11T12:36:36;32.90;37.70
46488;DHT22;32202;48.780;9.204;2022-07-11T12:39:03;33.40;37.80
46488;DHT22;32202;48.780;9.204;2022-07-11T12:41:32;34.00;37.00
46488;DHT22;32202;48.780;9.204;2022-07-11T12:43:58;34.90;36.10
46488;DHT22;32202;48.780;9.204;2022-07-11T12:46:42;35.30;35.80
46488;DHT22;32202;48.780;9.204;2022-07-11T12:49:10;35.30;35.60
46488;DHT22;32202;48.780;9.204;2022-07-11T12:51:38;35.10;35.70
46488;DHT22;32202;48.780;9.204;2022-07-11T12:54:08;34.90;35.90
46488;DHT22;32202;48.780;9.204;2022-07-11T12:56:35;34.50;36.40
46488;DHT22;32202;48.780;9.204;2022-07-11T12:59:02;34.30;36.70
46488;DHT22;32202;48.780;9.204;2022-07-11T13:01:29;33.80;37.00
46488;DHT22;32202;48.780;9.204;2022-07-11T13:03:55;33.40;37.60
46488;DHT22;32202;48.780;9.204;2022-07-11T13:06:21;32.80;37.90
46488;DHT22;32202;48.780;9.204;2022-07-11T13:09:07;32.70;38.40
46488;DHT22;32202;48.780;9.204;2022-07-11T13:11:34;32.70;38.30
46488;DHT22;32202;48.780;9.204;2022-07-11T13:14:00;32.60;38.40
46488;DHT22;32202;48.780;9.204;2022-07-11T13:16:26;32.80;38.40
46488;DHT22;32202;48.780;9.204;2022-07-11T13:18:52;32.80;38.30
46488;DHT22;32202;48.780;9.204;2022-07-11T13:21:18;32.90;38.60
46488;DHT22;32202;48.780;9.204;2022-07-11T13:23:44;33.00;38.10
46488;DHT22;32202;48.780;9.204;2022-07-11T13:26:12;33.00;38.10
46488;DHT22;32202;48.780;9.204;2022-07-11T13:28:38;33.00;38.30
46488;DHT22;32202;48.780;9.204;2022-07-11T13:31:05;32.70;38.50
46488;DHT22;32202;48.780;9.204;2022-07-11T13:33:31;32.50;38.70
46488;DHT22;32202;48.780;9.204;2022-07-11T13:35:58;32.40;38.90
46488;DHT22;32202;48.780;9.204;2022-07-11T13:38:24;32.30;39.20
46488;DHT22;32202;48.780;9.204;2022-07-11T13:40:50;32.30;39.30
46488;DHT22;32202;48.780;9.204;2022-07-11T13:43:16;32.20;39.30
46488;DHT22;32202;48.780;9.204;2022-07-11T13:45:42;32.20;39.50
46488;DHT22;32202;48.780;9.204;2022-07-11T13:48:12;32.10;39.10
46488;DHT22;32202;48.780;9.204;2022-07-11T13:50:38;31.90;39.30
46488;DHT22;32202;48.780;9.204;2022-07-11T13:53:04;31.80;39.60
46488;DHT22;32202;48.780;9.204;2022-07-11T13:55:29;31.70;39.80
46488;DHT22;32202;48.780;9.204;2022-07-11T13:58:00;31.50;40.00
46488;DHT22;32202;48.780;9.204;2022-07-11T14:00:27;31.40;40.30
46488;DHT22;32202;48.780;9.204;2022-07-11T14:02:57;31.20;40.40
46488;DHT22;32202;48.780;9.204;2022-07-11T14:05:23;31.30;40.70
46488;DHT22;32202;48.780;9.204;2022-07-11T14:07:49;31.40;40.40
46488;DHT22;32202;48.780;9.204;2022-07-11T14:10:15;31.50;41.20
46488;DHT22;32202;48.780;9.204;2022-07-11T14:12:40;31.30;40.80
46488;DHT22;32202;48.780;9.204;2022-07-11T14:15:07;31.30;40.90
46488;DHT22;32202;48.780;9.204;2022-07-11T14:17:34;31.00;41.20
46488;DHT22;32202;48.780;9.204;2022-07-11T14:20:00;30.90;41.50
46488;DHT22;32202;48.780;9.204;2022-07-11T14:22:25;30.80;41.60
46488;DHT22;32202;48.780;9.204;2022-07-11T14:24:51;30.60;41.60
46488;DHT22;32202;48.780;9.204;2022-07-11T14:27:17;30.50;41.90
46488;DHT22;32202;48.780;9.204;2022-07-11T14:29:43;30.40;42.30
46488;DHT22;32202;48.780;9.204;2022-07-11T14:32:13;30.20;42.60
46488;DHT22;32202;48.780;9.204;2022-07-11T14:34:39;30.10;42.60
46488;DHT22;32202;48.780;9.204;2022-07-11T14:37:04;29.90;43.10
46488;DHT22;32202;48.780;9.204;2022-07-11T14:39:31;29.80;43.20
46488;DHT22;32202;48.780;9.204;2022-07-11T14:41:56;29.80;43.50
46488;DHT22;32202;48.780;9.204;2022-07-11T14:44:23;29.70;43.20
46488;DHT22;32202;48.780;9.204;2022-07-11T14:46:48;29.70;43.40
46488;DHT22;32202;48.780;9.204;2022-07-11T14:49:14;29.70;43.60
46488;DHT22;32202;48.780;9.204;2022-07-11T14:51:40;29.70;43.50
46488;DHT22;32202;48.780;9.204;2022-07-11T14:54:05;29.70;43.60
46488;DHT22;32202;48.780;9.204;2022-07-11T14:56:31;29.80;43.90
46488;DHT22;32202;48.780;9.204;2022-07-11T14:58:57;29.90;43.00
46488;DHT22;32202;48.780;9.204;2022-07-11T15:01:23;29.90;43.20
46488;DHT22;32202;48.780;9.204;2022-07-11T15:03:49;29.80;43.10
46488;DHT22;32202;48.780;9.204;2022-07-11T15:06:16;29.60;43.80
46488;DHT22;32202;48.780;9.204;2022-07-11T15:08:42;29.30;43.90
46488;DHT22;32202;48.780;9.204;2022-07-11T15:11:27;29.20;44.20
46488;DHT22;32202;48.780;9.204;2022-07-11T15:14:12;29.30;44.00
46488;DHT22;32202;48.780;9.204;2022-07-11T15:16:40;29.50;44.10
46488;DHT22;32202;48.780;9.204;2022-07-11T15:19:06;29.40;44.20
46488;DHT22;32202;48.780;9.204;2022-07-11T15:21:33;29.60;44.10
46488;DHT22;32202;48.780;9.204;2022-07-11T15:23:59;29.70;43.80
46488;DHT22;32202;48.780;9.204;2022-07-11T15:26:26;29.80;43.70
46488;DHT22;32202;48.780;9.204;2022-07-11T15:28:53;29.60;44.00
46488;DHT22;32202;48.780;9.204;2022-07-11T15:31:19;29.40;44.00
46488;DHT22;32202;48.780;9.204;2022-07-11T15:33:45;29.10;44.60
46488;DHT22;32202;48.780;9.204;2022-07-11T15:36:16;28.90;44.90
46488;DHT22;32202;48.780;9.204;2022-07-11T15:38:42;28.70;45.10
46488;DHT22;32202;48.780;9.204;2022-07-11T15:41:16;28.50;45.10
46488;DHT22;32202;48.780;9.204;2022-07-11T15:43:42;28.40;45.50
46488;DHT22;32202;48.780;9.204;2022-07-11T15:46:15;28.30;45.80
46488;DHT22;32202;48.780;9.204;2022-07-11T15:48:40;28.10;45.80
46488;DHT22;32202;48.780;9.204;2022-07-11T15:51:06;28.00;46.00
46488;DHT22;32202;48.780;9.204;2022-07-11T15:53:32;28.00;45.80